Aeroporto :
LOGIN :

Iscrizione | Disclaimer

   EN    FR    IT 

 










Sommario :    VFR   VFR Marginale   IFR   IFR Intensivo   IFR Molto Intensivo
Visibilità : 
Base nubi : 
>= 8 km
>= 3000ft
5 / 8 km
1000 / 3000 ft
1500m / 5 km
500 / 1000 ft
800 / 1500m
200 / 500 ft
< 800m
< 200 ft
Simboli :   Temporali  Nebbia  Neve Forte  Precipitazioni Forti  Vento > 20 kt
SIGMETs :   Varie  Temporali  Ghiacco  Turbolenza  Onda orograficha  Ceneri Vulcaniche







- Altitudine del aeroporto : 209 ft
- Codice IATA : CLY
- Carte del aeroporto


LFKC - Calvi

ULTIMO METAR :
  • 170830Z AUTO 34006KT 280V360 CAVOK 23/17 Q1016 NOSIG

METARs OBSOLETI :
  • 170800Z AUTO 33004KT 280V050 CAVOK 22/17 Q1016 NOSIG
  • 170730Z AUTO VRB03KT 9999 FEW015 22/17 Q1015 NOSIG
  • 170700Z AUTO VRB03KT 9999 SCT011 20/17 Q1016 NOSIG
  • 170630Z AUTO VRB02KT 9999 SCT008 SCT012 19/17 Q1015 NOSIG
  • 170600Z AUTO 01004KT 340V040 9999 BKN007 19/17 Q1015 BECMG NSC

TAF TAF LFKC
Valido dal 17 a 09 ore il 18 a 09 ore UTC


170800Z 1709/1809 02006KT CAVOK TX28/1712Z TN16/1803Z
BECMG 1718/1720 20004KT
ATIS : +33 4 95 65 82 49
Nessun NOTAM noto per questo aeroporto.



MetMap, La meteo Aeronautica in un colpo d'occhio ! - Copyright ORBIFLY Dicembre 2007 - Disclaimer

ORBIFLY MET'MAP TEAM :

Programmazione e sviluppo : Alexandra Zaïnal
Concezione e sviluppo : Baudouin d'Aumeries
Co-Programmazione e sviluppo : Marc-Olivier Méhu
Supporto tecnico e logistico : Manuel Goepfert
Aiuto per la traduzione : Arnaldo La Scala

Contatto : metmap@orbifly.com




FONTI E CREDITI :

   NOAA